sensor_id;sensor_type;location;lat;lon;timestamp;pressure;altitude;pressure_sealevel;temperature;humidity
10668;BME280;5382;42.136;24.796;2023-09-19T00:01:34;100292.94;;;18.47;100.00
10668;BME280;5382;42.136;24.796;2023-09-19T00:04:03;100280.75;;;18.71;100.00
10668;BME280;5382;42.136;24.796;2023-09-19T00:06:35;100257.56;;;18.62;100.00
10668;BME280;5382;42.136;24.796;2023-09-19T00:09:02;100293.13;;;18.82;100.00
10668;BME280;5382;42.136;24.796;2023-09-19T00:11:29;100262.09;;;18.61;100.00
10668;BME280;5382;42.136;24.796;2023-09-19T00:13:56;100283.38;;;18.63;100.00
10668;BME280;5382;42.136;24.796;2023-09-19T00:16:25;100243.53;;;18.50;100.00
10668;BME280;5382;42.136;24.796;2023-09-19T00:18:52;100222.88;;;18.42;100.00
10668;BME280;5382;42.136;24.796;2023-09-19T00:21:20;100263.41;;;18.75;100.00
10668;BME280;5382;42.136;24.796;2023-09-19T00:23:47;100281.22;;;19.02;100.00
10668;BME280;5382;42.136;24.796;2023-09-19T00:26:17;100294.78;;;19.18;100.00
10668;BME280;5382;42.136;24.796;2023-09-19T00:28:46;100286.94;;;19.25;100.00
10668;BME280;5382;42.136;24.796;2023-09-19T00:31:13;100291.97;;;19.28;100.00
10668;BME280;5382;42.136;24.796;2023-09-19T00:33:40;100267.66;;;19.04;100.00
10668;BME280;5382;42.136;24.796;2023-09-19T00:36:08;100282.25;;;19.27;100.00
10668;BME280;5382;42.136;24.796;2023-09-19T00:38:36;100289.66;;;19.33;100.00
10668;BME280;5382;42.136;24.796;2023-09-19T00:41:03;100238.84;;;19.06;100.00
10668;BME280;5382;42.136;24.796;2023-09-19T00:43:30;100279.94;;;19.32;100.00
10668;BME280;5382;42.136;24.796;2023-09-19T00:46:00;100283.41;;;19.25;100.00
10668;BME280;5382;42.136;24.796;2023-09-19T00:48:28;100272.69;;;19.25;100.00
10668;BME280;5382;42.136;24.796;2023-09-19T00:50:57;100260.72;;;18.93;100.00
10668;BME280;5382;42.136;24.796;2023-09-19T00:53:26;100284.47;;;19.06;100.00
10668;BME280;5382;42.136;24.796;2023-09-19T00:55:55;100271.59;;;18.91;100.00
10668;BME280;5382;42.136;24.796;2023-09-19T00:58:22;100236.97;;;18.62;100.00
10668;BME280;5382;42.136;24.796;2023-09-19T01:00:49;100278.94;;;18.89;100.00
10668;BME280;5382;42.136;24.796;2023-09-19T01:03:18;100281.88;;;18.78;100.00
10668;BME280;5382;42.136;24.796;2023-09-19T01:05:46;100277.19;;;18.80;100.00
10668;BME280;5382;42.136;24.796;2023-09-19T01:08:12;100284.63;;;18.86;100.00
10668;BME280;5382;42.136;24.796;2023-09-19T01:10:45;100253.44;;;18.67;100.00
10668;BME280;5382;42.136;24.796;2023-09-19T01:13:22;100294.00;;;18.55;100.00
10668;BME280;5382;42.136;24.796;2023-09-19T01:16:01;100284.09;;;18.19;100.00
10668;BME280;5382;42.136;24.796;2023-09-19T01:18:35;100292.97;;;17.92;100.00
10668;BME280;5382;42.136;24.796;2023-09-19T01:21:12;100249.53;;;17.14;100.00
10668;BME280;5382;42.136;24.796;2023-09-19T01:24:10;100277.16;;;17.05;100.00
10668;BME280;5382;42.136;24.796;2023-09-19T01:26:56;100295.69;;;17.06;100.00
10668;BME280;5382;42.136;24.796;2023-09-19T01:29:35;100289.69;;;16.94;100.00
10668;BME280;5382;42.136;24.796;2023-09-19T01:32:08;100263.50;;;16.69;100.00
10668;BME280;5382;42.136;24.796;2023-09-19T01:34:46;100294.84;;;16.47;100.00
10668;BME280;5382;42.136;24.796;2023-09-19T01:37:17;100279.78;;;16.27;100.00
10668;BME280;5382;42.136;24.796;2023-09-19T01:39:47;100281.38;;;15.99;100.00
10668;BME280;5382;42.136;24.796;2023-09-19T01:42:24;100284.75;;;16.01;100.00
10668;BME280;5382;42.136;24.796;2023-09-19T01:44:57;100259.44;;;15.85;100.00
10668;BME280;5382;42.136;24.796;2023-09-19T01:47:32;100281.41;;;16.18;100.00
10668;BME280;5382;42.136;24.796;2023-09-19T01:50:11;100253.84;;;16.08;100.00
10668;BME280;5382;42.136;24.796;2023-09-19T01:53:00;100269.66;;;16.40;100.00
10668;BME280;5382;42.136;24.796;2023-09-19T01:55:30;100267.97;;;16.39;100.00
10668;BME280;5382;42.136;24.796;2023-09-19T01:58:06;100250.25;;;16.28;100.00
10668;BME280;5382;42.136;24.796;2023-09-19T02:00:36;100255.63;;;16.57;100.00
10668;BME280;5382;42.136;24.796;2023-09-19T02:03:06;100268.88;;;16.78;100.00
10668;BME280;5382;42.136;24.796;2023-09-19T02:05:33;100250.00;;;16.80;100.00
10668;BME280;5382;42.136;24.796;2023-09-19T02:08:00;100273.06;;;17.00;100.00
10668;BME280;5382;42.136;24.796;2023-09-19T02:10:28;100264.75;;;17.04;100.00
10668;BME280;5382;42.136;24.796;2023-09-19T02:12:55;100267.00;;;17.18;100.00
10668;BME280;5382;42.136;24.796;2023-09-19T02:15:22;100217.63;;;16.93;100.00
10668;BME280;5382;42.136;24.796;2023-09-19T02:17:49;100171.50;;;16.71;100.00
10668;BME280;5382;42.136;24.796;2023-09-19T02:20:17;100267.94;;;17.36;100.00
10668;BME280;5382;42.136;24.796;2023-09-19T02:22:45;100265.22;;;17.46;100.00
10668;BME280;5382;42.136;24.796;2023-09-19T02:25:15;100262.66;;;17.54;100.00
10668;BME280;5382;42.136;24.796;2023-09-19T02:27:43;100249.81;;;17.58;100.00
10668;BME280;5382;42.136;24.796;2023-09-19T02:30:12;100249.69;;;17.59;100.00
10668;BME280;5382;42.136;24.796;2023-09-19T02:32:41;100250.09;;;17.64;100.00
10668;BME280;5382;42.136;24.796;2023-09-19T02:35:08;100259.66;;;17.67;100.00
10668;BME280;5382;42.136;24.796;2023-09-19T02:37:38;100257.59;;;17.61;100.00
10668;BME280;5382;42.136;24.796;2023-09-19T02:40:06;100258.81;;;17.66;100.00
10668;BME280;5382;42.136;24.796;2023-09-19T02:42:44;100258.56;;;17.60;100.00
10668;BME280;5382;42.136;24.796;2023-09-19T02:45:14;100253.50;;;17.57;100.00
10668;BME280;5382;42.136;24.796;2023-09-19T02:47:43;100247.50;;;17.45;100.00
10668;BME280;5382;42.136;24.796;2023-09-19T02:50:10;100263.09;;;17.50;100.00
10668;BME280;5382;42.136;24.796;2023-09-19T02:52:41;100260.59;;;17.48;100.00
10668;BME280;5382;42.136;24.796;2023-09-19T02:55:09;100248.75;;;17.51;100.00
10668;BME280;5382;42.136;24.796;2023-09-19T02:57:36;100236.41;;;17.40;100.00
10668;BME280;5382;42.136;24.796;2023-09-19T03:00:07;100263.03;;;17.69;100.00
10668;BME280;5382;42.136;24.796;2023-09-19T03:02:35;100235.47;;;17.59;100.00
10668;BME280;5382;42.136;24.796;2023-09-19T03:05:04;100251.59;;;17.77;100.00
10668;BME280;5382;42.136;24.796;2023-09-19T03:07:31;100262.56;;;17.83;100.00
10668;BME280;5382;42.136;24.796;2023-09-19T03:10:00;100261.28;;;17.87;100.00
10668;BME280;5382;42.136;24.796;2023-09-19T03:12:27;100258.22;;;17.73;100.00
10668;BME280;5382;42.136;24.796;2023-09-19T03:14:54;100260.66;;;17.66;100.00
10668;BME280;5382;42.136;24.796;2023-09-19T03:17:21;100258.41;;;17.61;100.00
10668;BME280;5382;42.136;24.796;2023-09-19T03:19:47;100245.81;;;17.44;100.00
10668;BME280;5382;42.136;24.796;2023-09-19T03:22:15;100212.47;;;17.29;100.00
10668;BME280;5382;42.136;24.796;2023-09-19T03:24:42;100243.00;;;17.36;100.00
10668;BME280;5382;42.136;24.796;2023-09-19T03:27:11;100256.66;;;17.42;100.00
10668;BME280;5382;42.136;24.796;2023-09-19T03:29:39;100225.47;;;17.14;100.00
10668;BME280;5382;42.136;24.796;2023-09-19T03:32:06;100257.53;;;17.33;100.00
10668;BME280;5382;42.136;24.796;2023-09-19T03:34:36;100210.31;;;16.95;100.00
10668;BME280;5382;42.136;24.796;2023-09-19T03:37:03;100251.78;;;17.18;100.00
10668;BME280;5382;42.136;24.796;2023-09-19T03:39:32;100252.50;;;17.20;100.00
10668;BME280;5382;42.136;24.796;2023-09-19T03:41:59;100257.84;;;17.20;100.00
10668;BME280;5382;42.136;24.796;2023-09-19T03:44:27;100235.75;;;17.09;100.00
10668;BME280;5382;42.136;24.796;2023-09-19T03:46:54;100256.56;;;17.25;100.00
10668;BME280;5382;42.136;24.796;2023-09-19T03:49:21;100204.13;;;16.94;100.00
10668;BME280;5382;42.136;24.796;2023-09-19T03:51:49;100259.69;;;17.20;100.00
10668;BME280;5382;42.136;24.796;2023-09-19T03:54:15;100215.56;;;16.87;100.00
10668;BME280;5382;42.136;24.796;2023-09-19T03:56:45;100262.25;;;17.02;100.00
10668;BME280;5382;42.136;24.796;2023-09-19T03:59:12;100234.25;;;16.87;100.00
10668;BME280;5382;42.136;24.796;2023-09-19T04:01:40;100244.66;;;16.99;100.00
10668;BME280;5382;42.136;24.796;2023-09-19T04:04:08;100267.84;;;17.09;100.00
10668;BME280;5382;42.136;24.796;2023-09-19T04:06:35;100273.22;;;16.99;100.00
10668;BME280;5382;42.136;24.796;2023-09-19T04:09:02;100270.69;;;16.97;100.00
10668;BME280;5382;42.136;24.796;2023-09-19T04:11:29;100277.84;;;16.87;100.00
10668;BME280;5382;42.136;24.796;2023-09-19T04:13:57;100222.13;;;16.44;100.00
10668;BME280;5382;42.136;24.796;2023-09-19T04:16:23;100235.22;;;16.56;100.00
10668;BME280;5382;42.136;24.796;2023-09-19T04:18:52;100274.59;;;16.74;100.00
10668;BME280;5382;42.136;24.796;2023-09-19T04:21:18;100274.44;;;16.56;100.00
10668;BME280;5382;42.136;24.796;2023-09-19T04:23:45;100206.94;;;16.15;100.00
10668;BME280;5382;42.136;24.796;2023-09-19T04:26:12;100241.69;;;16.34;100.00
10668;BME280;5382;42.136;24.796;2023-09-19T04:28:41;100259.81;;;16.41;100.00
10668;BME280;5382;42.136;24.796;2023-09-19T04:31:09;100269.09;;;16.36;100.00
10668;BME280;5382;42.136;24.796;2023-09-19T04:33:37;100272.16;;;16.22;100.00
10668;BME280;5382;42.136;24.796;2023-09-19T04:36:06;100224.59;;;15.87;100.00
10668;BME280;5382;42.136;24.796;2023-09-19T04:38:33;100233.94;;;15.72;100.00
10668;BME280;5382;42.136;24.796;2023-09-19T04:41:00;100278.31;;;16.13;100.00
10668;BME280;5382;42.136;24.796;2023-09-19T04:43:27;100281.41;;;16.18;100.00
10668;BME280;5382;42.136;24.796;2023-09-19T04:45:54;100271.59;;;16.28;100.00
10668;BME280;5382;42.136;24.796;2023-09-19T04:48:21;100266.41;;;16.27;100.00
10668;BME280;5382;42.136;24.796;2023-09-19T04:50:50;100271.75;;;16.36;100.00
10668;BME280;5382;42.136;24.796;2023-09-19T04:53:18;100203.94;;;15.89;100.00
10668;BME280;5382;42.136;24.796;2023-09-19T04:55:50;100231.53;;;16.09;100.00
10668;BME280;5382;42.136;24.796;2023-09-19T04:58:18;100271.22;;;16.43;100.00
10668;BME280;5382;42.136;24.796;2023-09-19T05:00:45;100252.50;;;16.13;100.00
10668;BME280;5382;42.136;24.796;2023-09-19T05:03:12;100223.25;;;16.12;100.00
10668;BME280;5382;42.136;24.796;2023-09-19T05:05:39;100236.91;;;16.19;100.00
10668;BME280;5382;42.136;24.796;2023-09-19T05:08:08;100263.19;;;16.43;100.00
10668;BME280;5382;42.136;24.796;2023-09-19T05:10:36;100245.47;;;16.42;100.00
10668;BME280;5382;42.136;24.796;2023-09-19T05:13:04;100251.84;;;16.60;100.00
10668;BME280;5382;42.136;24.796;2023-09-19T05:15:33;100266.44;;;16.66;100.00
10668;BME280;5382;42.136;24.796;2023-09-19T05:18:01;100209.50;;;16.17;100.00
10668;BME280;5382;42.136;24.796;2023-09-19T05:20:28;100260.53;;;16.72;100.00
10668;BME280;5382;42.136;24.796;2023-09-19T05:22:59;100270.56;;;16.89;100.00
10668;BME280;5382;42.136;24.796;2023-09-19T05:25:27;100272.50;;;16.97;100.00
10668;BME280;5382;42.136;24.796;2023-09-19T05:27:57;100274.91;;;17.10;100.00
10668;BME280;5382;42.136;24.796;2023-09-19T05:30:25;100275.00;;;17.18;100.00
10668;BME280;5382;42.136;24.796;2023-09-19T05:32:52;100267.94;;;17.27;100.00
10668;BME280;5382;42.136;24.796;2023-09-19T05:35:19;100270.78;;;17.35;100.00
10668;BME280;5382;42.136;24.796;2023-09-19T05:37:47;100273.56;;;17.43;100.00
10668;BME280;5382;42.136;24.796;2023-09-19T05:40:16;100278.00;;;17.52;100.00
10668;BME280;5382;42.136;24.796;2023-09-19T05:42:43;100266.59;;;17.50;100.00
10668;BME280;5382;42.136;24.796;2023-09-19T05:45:12;100279.53;;;17.64;100.00
10668;BME280;5382;42.136;24.796;2023-09-19T05:47:39;100278.66;;;17.74;100.00
10668;BME280;5382;42.136;24.796;2023-09-19T05:50:09;100259.94;;;17.74;100.00
10668;BME280;5382;42.136;24.796;2023-09-19T05:52:36;100281.69;;;17.88;100.00
10668;BME280;5382;42.136;24.796;2023-09-19T05:55:04;100279.59;;;17.92;100.00
10668;BME280;5382;42.136;24.796;2023-09-19T05:57:32;100280.88;;;17.88;100.00
10668;BME280;5382;42.136;24.796;2023-09-19T05:59:59;100285.97;;;18.09;100.00
10668;BME280;5382;42.136;24.796;2023-09-19T06:02:27;100275.25;;;18.09;100.00
10668;BME280;5382;42.136;24.796;2023-09-19T06:04:55;100276.22;;;18.18;100.00
10668;BME280;5382;42.136;24.796;2023-09-19T06:07:22;100263.25;;;18.13;100.00
10668;BME280;5382;42.136;24.796;2023-09-19T06:09:51;100265.81;;;18.33;100.00
10668;BME280;5382;42.136;24.796;2023-09-19T06:12:19;100262.75;;;18.45;100.00
10668;BME280;5382;42.136;24.796;2023-09-19T06:14:45;100262.00;;;18.53;100.00
10668;BME280;5382;42.136;24.796;2023-09-19T06:17:13;100258.09;;;18.47;100.00
10668;BME280;5382;42.136;24.796;2023-09-19T06:19:42;100255.97;;;18.51;100.00
10668;BME280;5382;42.136;24.796;2023-09-19T06:22:14;100256.50;;;18.55;100.00
10668;BME280;5382;42.136;24.796;2023-09-19T06:24:41;100265.22;;;18.57;100.00
10668;BME280;5382;42.136;24.796;2023-09-19T06:27:08;100241.09;;;18.57;100.00
10668;BME280;5382;42.136;24.796;2023-09-19T06:29:35;100253.06;;;18.80;100.00
10668;BME280;5382;42.136;24.796;2023-09-19T06:32:07;100257.03;;;18.94;100.00
10668;BME280;5382;42.136;24.796;2023-09-19T06:34:34;100247.03;;;19.04;100.00
10668;BME280;5382;42.136;24.796;2023-09-19T06:37:02;100251.03;;;19.18;100.00
10668;BME280;5382;42.136;24.796;2023-09-19T06:39:30;100243.50;;;19.22;100.00
10668;BME280;5382;42.136;24.796;2023-09-19T06:41:57;100259.22;;;19.43;100.00
10668;BME280;5382;42.136;24.796;2023-09-19T06:44:27;100252.25;;;19.58;100.00
10668;BME280;5382;42.136;24.796;2023-09-19T06:46:57;100254.28;;;19.64;100.00
10668;BME280;5382;42.136;24.796;2023-09-19T06:49:24;100253.84;;;19.69;100.00
10668;BME280;5382;42.136;24.796;2023-09-19T06:51:54;100255.94;;;19.57;100.00
10668;BME280;5382;42.136;24.796;2023-09-19T06:54:22;100253.31;;;19.65;100.00
10668;BME280;5382;42.136;24.796;2023-09-19T06:56:49;100250.72;;;19.81;100.00
10668;BME280;5382;42.136;24.796;2023-09-19T06:59:16;100243.16;;;19.85;100.00
10668;BME280;5382;42.136;24.796;2023-09-19T07:01:43;100242.34;;;19.93;100.00
10668;BME280;5382;42.136;24.796;2023-09-19T07:04:10;100236.50;;;19.97;100.00
10668;BME280;5382;42.136;24.796;2023-09-19T07:06:38;100236.38;;;20.07;100.00
10668;BME280;5382;42.136;24.796;2023-09-19T07:09:05;100235.03;;;20.11;100.00
10668;BME280;5382;42.136;24.796;2023-09-19T07:11:35;100231.00;;;20.15;100.00
10668;BME280;5382;42.136;24.796;2023-09-19T07:14:02;100234.75;;;20.31;100.00
10668;BME280;5382;42.136;24.796;2023-09-19T07:16:31;100222.66;;;20.35;100.00
10668;BME280;5382;42.136;24.796;2023-09-19T07:18:58;100229.22;;;20.48;100.00
10668;BME280;5382;42.136;24.796;2023-09-19T07:21:24;100220.66;;;20.45;100.00
10668;BME280;5382;42.136;24.796;2023-09-19T07:23:51;100221.53;;;20.62;100.00
10668;BME280;5382;42.136;24.796;2023-09-19T07:26:18;100234.66;;;20.73;100.00
10668;BME280;5382;42.136;24.796;2023-09-19T07:28:46;100144.34;;;20.13;100.00
10668;BME280;5382;42.136;24.796;2023-09-19T07:31:13;100234.81;;;20.80;100.00
10668;BME280;5382;42.136;24.796;2023-09-19T07:33:40;100218.34;;;20.66;100.00
10668;BME280;5382;42.136;24.796;2023-09-19T07:36:10;100229.75;;;20.85;100.00
10668;BME280;5382;42.136;24.796;2023-09-19T07:38:39;100215.47;;;20.92;100.00
10668;BME280;5382;42.136;24.796;2023-09-19T07:41:06;100219.16;;;21.00;100.00
10668;BME280;5382;42.136;24.796;2023-09-19T07:43:34;100187.03;;;20.98;100.00
10668;BME280;5382;42.136;24.796;2023-09-19T07:46:04;100213.56;;;21.26;100.00
10668;BME280;5382;42.136;24.796;2023-09-19T07:48:34;100206.31;;;21.26;100.00
10668;BME280;5382;42.136;24.796;2023-09-19T07:51:04;100204.13;;;21.46;100.00
10668;BME280;5382;42.136;24.796;2023-09-19T07:53:31;100204.06;;;21.63;100.00
10668;BME280;5382;42.136;24.796;2023-09-19T07:56:04;100198.97;;;21.68;100.00
10668;BME280;5382;42.136;24.796;2023-09-19T07:58:31;100209.78;;;21.60;100.00
10668;BME280;5382;42.136;24.796;2023-09-19T08:01:04;100197.34;;;21.59;100.00
10668;BME280;5382;42.136;24.796;2023-09-19T08:03:33;100192.66;;;21.52;100.00
10668;BME280;5382;42.136;24.796;2023-09-19T08:06:00;100188.22;;;21.68;100.00
10668;BME280;5382;42.136;24.796;2023-09-19T08:08:29;100188.16;;;21.76;100.00
10668;BME280;5382;42.136;24.796;2023-09-19T08:10:56;100124.69;;;21.42;100.00
10668;BME280;5382;42.136;24.796;2023-09-19T08:13:24;100183.41;;;21.86;100.00
10668;BME280;5382;42.136;24.796;2023-09-19T08:15:51;100167.91;;;21.88;100.00
10668;BME280;5382;42.136;24.796;2023-09-19T08:18:20;100181.00;;;21.99;100.00
10668;BME280;5382;42.136;24.796;2023-09-19T08:20:51;100169.63;;;22.12;100.00
10668;BME280;5382;42.136;24.796;2023-09-19T08:23:19;100173.28;;;22.42;100.00
10668;BME280;5382;42.136;24.796;2023-09-19T08:25:46;100166.38;;;22.63;100.00
10668;BME280;5382;42.136;24.796;2023-09-19T08:28:13;100169.75;;;22.65;100.00
10668;BME280;5382;42.136;24.796;2023-09-19T08:30:45;100151.59;;;22.74;100.00
10668;BME280;5382;42.136;24.796;2023-09-19T08:33:12;100149.84;;;22.81;100.00
10668;BME280;5382;42.136;24.796;2023-09-19T08:35:42;100161.56;;;22.73;100.00
10668;BME280;5382;42.136;24.796;2023-09-19T08:38:10;100157.81;;;22.97;100.00
10668;BME280;5382;42.136;24.796;2023-09-19T08:40:39;100138.56;;;23.15;100.00
10668;BME280;5382;42.136;24.796;2023-09-19T08:43:07;100142.81;;;23.54;100.00
10668;BME280;5382;42.136;24.796;2023-09-19T08:45:35;100145.31;;;23.70;100.00
10668;BME280;5382;42.136;24.796;2023-09-19T08:48:23;100138.88;;;23.71;99.55
10668;BME280;5382;42.136;24.796;2023-09-19T08:50:56;100136.34;;;23.85;100.00
10668;BME280;5382;42.136;24.796;2023-09-19T08:53:27;100124.34;;;24.09;95.80
10668;BME280;5382;42.136;24.796;2023-09-19T08:55:59;100118.03;;;24.02;93.53
10668;BME280;5382;42.136;24.796;2023-09-19T08:58:32;100131.09;;;24.20;100.00
10668;BME280;5382;42.136;24.796;2023-09-19T09:01:01;100124.97;;;24.32;94.87
10668;BME280;5382;42.136;24.796;2023-09-19T09:03:32;100124.91;;;24.47;92.67
10668;BME280;5382;42.136;24.796;2023-09-19T09:06:00;100126.44;;;24.56;90.16
10668;BME280;5382;42.136;24.796;2023-09-19T09:08:30;100109.91;;;24.73;86.14
10668;BME280;5382;42.136;24.796;2023-09-19T09:10:58;100118.38;;;24.91;82.67
10668;BME280;5382;42.136;24.796;2023-09-19T09:13:25;100119.28;;;25.05;84.51
10668;BME280;5382;42.136;24.796;2023-09-19T09:15:53;100123.47;;;25.08;82.41
10668;BME280;5382;42.136;24.796;2023-09-19T09:18:20;100115.63;;;25.19;81.05
10668;BME280;5382;42.136;24.796;2023-09-19T09:20:48;100115.28;;;25.29;80.15
10668;BME280;5382;42.136;24.796;2023-09-19T09:23:16;100105.03;;;25.24;77.07
10668;BME280;5382;42.136;24.796;2023-09-19T09:25:53;100101.97;;;25.34;79.73
10668;BME280;5382;42.136;24.796;2023-09-19T09:28:26;100108.94;;;25.57;80.47
10668;BME280;5382;42.136;24.796;2023-09-19T09:30:54;100094.16;;;25.66;78.89
10668;BME280;5382;42.136;24.796;2023-09-19T09:33:21;100098.84;;;25.92;74.49
10668;BME280;5382;42.136;24.796;2023-09-19T09:35:49;100067.47;;;25.56;78.22
10668;BME280;5382;42.136;24.796;2023-09-19T09:38:20;100092.91;;;25.68;76.00
10668;BME280;5382;42.136;24.796;2023-09-19T09:40:51;100092.09;;;25.81;83.25
10668;BME280;5382;42.136;24.796;2023-09-19T09:43:26;100086.16;;;26.19;83.22
10668;BME280;5382;42.136;24.796;2023-09-19T09:46:14;100085.31;;;26.59;70.58
10668;BME280;5382;42.136;24.796;2023-09-19T09:49:00;100069.84;;;26.79;93.45
10668;BME280;5382;42.136;24.796;2023-09-19T09:51:45;100074.56;;;27.10;69.04
10668;BME280;5382;42.136;24.796;2023-09-19T09:54:16;100067.91;;;27.06;77.14
10668;BME280;5382;42.136;24.796;2023-09-19T09:56:55;100060.94;;;27.30;69.28
10668;BME280;5382;42.136;24.796;2023-09-19T09:59:48;100060.59;;;27.58;62.65
10668;BME280;5382;42.136;24.796;2023-09-19T10:02:18;100051.47;;;27.78;62.81
10668;BME280;5382;42.136;24.796;2023-09-19T10:04:50;100054.19;;;27.78;61.26
10668;BME280;5382;42.136;24.796;2023-09-19T10:07:35;100051.59;;;27.96;60.13
10668;BME280;5382;42.136;24.796;2023-09-19T10:10:06;100033.31;;;28.03;60.57
10668;BME280;5382;42.136;24.796;2023-09-19T10:12:44;100014.66;;;27.44;59.71
10668;BME280;5382;42.136;24.796;2023-09-19T10:15:15;100050.91;;;27.69;61.23
10668;BME280;5382;42.136;24.796;2023-09-19T10:17:47;100054.19;;;27.78;59.95
10668;BME280;5382;42.136;24.796;2023-09-19T10:20:15;100049.34;;;27.87;60.77
10668;BME280;5382;42.136;24.796;2023-09-19T10:23:00;100039.91;;;27.89;58.66
10668;BME280;5382;42.136;24.796;2023-09-19T10:25:29;100023.78;;;27.56;59.54
10668;BME280;5382;42.136;24.796;2023-09-19T10:27:57;100039.78;;;28.09;58.91
10668;BME280;5382;42.136;24.796;2023-09-19T10:30:25;100010.88;;;28.33;57.61
10668;BME280;5382;42.136;24.796;2023-09-19T10:33:01;100026.66;;;28.68;57.88
10668;BME280;5382;42.136;24.796;2023-09-19T10:35:28;100019.25;;;28.93;55.96
10668;BME280;5382;42.136;24.796;2023-09-19T10:37:59;99998.59;;;29.04;53.57
10668;BME280;5382;42.136;24.796;2023-09-19T10:40:28;100012.50;;;29.33;53.03
10668;BME280;5382;42.136;24.796;2023-09-19T10:43:06;99963.88;;;29.30;51.33
10668;BME280;5382;42.136;24.796;2023-09-19T10:45:34;100014.88;;;30.13;50.30
10668;BME280;5382;42.136;24.796;2023-09-19T10:48:04;100003.25;;;30.65;49.31
10668;BME280;5382;42.136;24.796;2023-09-19T10:50:35;99987.25;;;31.09;47.84
10668;BME280;5382;42.136;24.796;2023-09-19T10:53:05;99985.16;;;30.88;48.86
10668;BME280;5382;42.136;24.796;2023-09-19T10:55:36;99989.25;;;30.50;49.42
10668;BME280;5382;42.136;24.796;2023-09-19T10:58:04;99991.78;;;31.03;50.45
10668;BME280;5382;42.136;24.796;2023-09-19T11:00:53;99986.22;;;31.56;47.33
10668;BME280;5382;42.136;24.796;2023-09-19T11:03:22;99986.56;;;31.59;46.98
10668;BME280;5382;42.136;24.796;2023-09-19T11:06:16;99982.47;;;32.07;45.88
10668;BME280;5382;42.136;24.796;2023-09-19T11:09:01;99980.66;;;31.50;45.95
10668;BME280;5382;42.136;24.796;2023-09-19T11:11:49;99976.25;;;31.95;45.42
10668;BME280;5382;42.136;24.796;2023-09-19T11:14:44;99935.72;;;32.14;44.26
10668;BME280;5382;42.136;24.796;2023-09-19T11:17:38;99964.50;;;32.72;44.33
10668;BME280;5382;42.136;24.796;2023-09-19T11:20:20;99964.75;;;33.42;43.38
10668;BME280;5382;42.136;24.796;2023-09-19T11:23:23;99952.09;;;33.68;41.23
10668;BME280;5382;42.136;24.796;2023-09-19T11:25:53;99946.91;;;34.57;39.98
10668;BME280;5382;42.136;24.796;2023-09-19T11:28:34;99946.66;;;35.42;38.84
10668;BME280;5382;42.136;24.796;2023-09-19T11:34:46;99910.25;;;34.88;38.98
10668;BME280;5382;42.136;24.796;2023-09-19T11:40:45;99928.50;;;35.20;38.39
10668;BME280;5382;42.136;24.796;2023-09-19T11:43:31;99925.09;;;34.29;39.22
10668;BME280;5382;42.136;24.796;2023-09-19T11:46:09;99914.41;;;34.38;39.11
10668;BME280;5382;42.136;24.796;2023-09-19T11:48:39;99894.81;;;34.82;39.34
10668;BME280;5382;42.136;24.796;2023-09-19T11:51:15;99895.75;;;35.18;39.42
10668;BME280;5382;42.136;24.796;2023-09-19T11:53:48;99894.66;;;35.55;38.38
10668;BME280;5382;42.136;24.796;2023-09-19T11:56:19;99865.22;;;35.66;36.70
10668;BME280;5382;42.136;24.796;2023-09-19T11:58:49;99869.34;;;35.43;36.03
10668;BME280;5382;42.136;24.796;2023-09-19T12:01:29;99899.84;;;35.11;36.01
10668;BME280;5382;42.136;24.796;2023-09-19T12:03:58;99869.09;;;35.19;36.48
10668;BME280;5382;42.136;24.796;2023-09-19T12:06:26;99882.25;;;35.99;36.50
10668;BME280;5382;42.136;24.796;2023-09-19T12:08:55;99871.78;;;35.86;35.68
10668;BME280;5382;42.136;24.796;2023-09-19T12:11:23;99860.25;;;35.53;35.23
10668;BME280;5382;42.136;24.796;2023-09-19T12:13:50;99875.13;;;35.77;35.35
10668;BME280;5382;42.136;24.796;2023-09-19T12:16:19;99876.44;;;36.11;35.21
10668;BME280;5382;42.136;24.796;2023-09-19T12:18:50;99865.84;;;36.49;36.23
10668;BME280;5382;42.136;24.796;2023-09-19T12:21:25;99847.34;;;36.54;34.80
10668;BME280;5382;42.136;24.796;2023-09-19T12:24:06;99866.03;;;36.67;34.97
10668;BME280;5382;42.136;24.796;2023-09-19T12:26:42;99863.91;;;36.44;34.87
10668;BME280;5382;42.136;24.796;2023-09-19T12:29:16;99864.56;;;36.25;35.04
10668;BME280;5382;42.136;24.796;2023-09-19T12:31:50;99870.69;;;36.07;33.68
10668;BME280;5382;42.136;24.796;2023-09-19T12:34:22;99862.72;;;35.34;33.55
10668;BME280;5382;42.136;24.796;2023-09-19T12:37:04;99865.47;;;35.08;34.11
10668;BME280;5382;42.136;24.796;2023-09-19T12:39:37;99860.72;;;34.73;34.51
10668;BME280;5382;42.136;24.796;2023-09-19T12:42:08;99859.50;;;34.43;34.63
10668;BME280;5382;42.136;24.796;2023-09-19T12:44:36;99840.41;;;34.11;34.66
10668;BME280;5382;42.136;24.796;2023-09-19T12:47:14;99854.28;;;34.42;35.77
10668;BME280;5382;42.136;24.796;2023-09-19T12:50:12;99848.94;;;34.98;35.96
10668;BME280;5382;42.136;24.796;2023-09-19T12:52:45;99838.28;;;35.27;35.04
10668;BME280;5382;42.136;24.796;2023-09-19T12:55:21;99817.44;;;34.43;35.67
10668;BME280;5382;42.136;24.796;2023-09-19T12:58:00;99839.78;;;34.62;35.37
10668;BME280;5382;42.136;24.796;2023-09-19T13:00:35;99812.50;;;33.77;36.92
10668;BME280;5382;42.136;24.796;2023-09-19T13:03:24;99802.94;;;33.95;36.42
10668;BME280;5382;42.136;24.796;2023-09-19T13:05:54;99837.31;;;34.60;35.82
10668;BME280;5382;42.136;24.796;2023-09-19T13:08:24;99823.94;;;35.41;34.66
10668;BME280;5382;42.136;24.796;2023-09-19T13:11:08;99815.81;;;34.42;35.32